Time;durP1;ratioP1;P1;durP2;ratioP2;P2;SDS_P1;SDS_P2;PMS_P1;PMS_P2;Temp;Humidity;BMP_temperature;BMP_pressure;BME280_temperature;BME280_humidity;BME280_pressure;Samples;Min_cycle;Max_cycle;Signal;HPM_P1;HPM_P2
2024/04/08 00:01:05;;;;;;;4.00;2.60;;;16.30;99.90;;;;;;5050424;28;20338;-72
2024/04/08 00:03:32;;;;;;;4.47;3.33;;;16.30;99.90;;;;;;5049045;28;20215;-72
2024/04/08 00:05:58;;;;;;;3.45;2.95;;;16.30;99.90;;;;;;5049902;28;20208;-73
2024/04/08 00:08:25;;;;;;;4.33;3.43;;;16.30;99.90;;;;;;5048675;28;20196;-71
2024/04/08 00:10:51;;;;;;;5.70;3.10;;;16.40;99.90;;;;;;5047287;28;20276;-71
2024/04/08 00:13:18;;;;;;;4.23;3.20;;;16.40;99.90;;;;;;5050881;28;20191;-73
2024/04/08 00:15:46;;;;;;;4.47;3.90;;;16.40;99.90;;;;;;5050652;28;20263;-74
2024/04/08 00:18:13;;;;;;;3.73;3.30;;;16.40;99.90;;;;;;5052437;28;20207;-74
2024/04/08 00:20:39;;;;;;;4.32;2.88;;;16.40;99.90;;;;;;5051847;28;20641;-74
2024/04/08 00:23:06;;;;;;;5.50;3.23;;;16.40;99.90;;;;;;5050411;28;20185;-75
2024/04/08 00:25:34;;;;;;;3.38;2.90;;;16.30;99.90;;;;;;5053270;28;20213;-75
2024/04/08 00:28:01;;;;;;;2.70;2.50;;;16.30;99.90;;;;;;5054310;28;20186;-74
2024/04/08 00:30:27;;;;;;;2.90;2.60;;;16.30;99.90;;;;;;5054630;28;20283;-74
2024/04/08 00:32:56;;;;;;;2.47;2.27;;;16.20;99.90;;;;;;5054320;28;20261;-75
2024/04/08 00:35:22;;;;;;;3.20;2.70;;;16.20;99.90;;;;;;5051488;28;20335;-73
2024/04/08 00:37:49;;;;;;;2.53;2.33;;;16.20;99.90;;;;;;5054623;28;20191;-72
2024/04/08 00:40:15;;;;;;;3.70;2.53;;;16.20;99.90;;;;;;5053747;28;20195;-72
2024/04/08 00:42:43;;;;;;;2.87;2.40;;;16.20;99.90;;;;;;5053214;28;20208;-72
2024/04/08 00:45:09;;;;;;;3.53;3.07;;;16.20;99.90;;;;;;5054425;28;20202;-72
2024/04/08 00:47:36;;;;;;;3.47;3.07;;;16.20;99.90;;;;;;5054331;28;20191;-72
2024/04/08 00:50:04;;;;;;;3.17;2.83;;;16.30;99.90;;;;;;5045611;28;20202;-72
2024/04/08 00:52:32;;;;;;;5.93;2.80;;;16.30;99.90;;;;;;5053168;28;20292;-72
2024/04/08 00:54:58;;;;;;;5.83;3.00;;;16.30;99.90;;;;;;5053720;28;20199;-73
2024/04/08 00:57:26;;;;;;;6.67;3.53;;;16.30;99.90;;;;;;5054036;28;20674;-74
2024/04/08 00:59:52;;;;;;;9.67;4.97;;;16.30;99.90;;;;;;5052679;28;20209;-72
2024/04/08 01:02:20;;;;;;;6.47;4.23;;;16.20;99.90;;;;;;5579338;22;20234;-73
2024/04/08 01:04:47;;;;;;;6.97;4.27;;;16.20;99.90;;;;;;5052731;28;20187;-73
2024/04/08 01:07:15;;;;;;;8.33;4.97;;;16.20;99.90;;;;;;5060880;28;20556;-72
2024/04/08 01:09:41;;;;;;;5.07;4.00;;;16.10;99.90;;;;;;5060333;28;20198;-72
2024/04/08 01:12:09;;;;;;;4.80;3.50;;;16.10;99.90;;;;;;5075911;28;20207;-73
2024/04/08 01:14:35;;;;;;;5.00;3.90;;;16.00;99.90;;;;;;5064718;28;20680;-72
2024/04/08 01:17:02;;;;;;;3.93;3.50;;;15.90;99.90;;;;;;5056722;28;20286;-71
2024/04/08 01:19:28;;;;;;;8.23;5.00;;;15.90;99.90;;;;;;5063456;28;20197;-72
2024/04/08 01:21:55;;;;;;;6.00;4.00;;;15.90;99.90;;;;;;5059597;28;21041;-72
2024/04/08 01:24:23;;;;;;;3.50;3.17;;;15.90;99.90;;;;;;5059517;28;20561;-72
2024/04/08 01:26:50;;;;;;;3.23;2.90;;;15.90;99.90;;;;;;5057892;28;20266;-72
2024/04/08 01:29:16;;;;;;;2.73;2.47;;;15.80;99.90;;;;;;5064735;28;20198;-72
2024/04/08 01:31:43;;;;;;;2.27;2.17;;;15.80;99.90;;;;;;5066517;28;20238;-72
2024/04/08 01:34:09;;;;;;;3.90;2.67;;;15.70;99.90;;;;;;5057701;28;20199;-72
2024/04/08 01:36:36;;;;;;;2.70;2.50;;;15.80;99.90;;;;;;5058357;28;23024;-72
2024/04/08 01:39:03;;;;;;;2.80;2.27;;;15.80;99.90;;;;;;5061470;28;20204;-72
2024/04/08 01:41:32;;;;;;;3.73;2.90;;;15.80;99.90;;;;;;5074077;28;20289;-73
2024/04/08 01:43:59;;;;;;;2.90;2.37;;;15.90;99.90;;;;;;5052088;28;20197;-72
2024/04/08 01:46:26;;;;;;;2.33;2.13;;;15.90;99.90;;;;;;5056531;28;20678;-72
2024/04/08 01:48:52;;;;;;;2.97;2.33;;;15.90;99.90;;;;;;5062087;28;20273;-72
2024/04/08 01:51:19;;;;;;;1.93;1.83;;;15.90;99.90;;;;;;5063564;28;20189;-73
2024/04/08 01:53:45;;;;;;;1.90;1.80;;;15.90;99.90;;;;;;5061828;28;20522;-73
2024/04/08 01:56:12;;;;;;;4.17;2.80;;;15.80;99.90;;;;;;5058533;28;20198;-73
2024/04/08 01:58:40;;;;;;;3.50;2.70;;;15.80;99.90;;;;;;5059807;28;20206;-74
2024/04/08 02:01:07;;;;;;;2.60;2.33;;;15.90;99.90;;;;;;5059085;28;20216;-74
2024/04/08 02:03:34;;;;;;;2.40;2.20;;;15.80;99.90;;;;;;5075557;28;20700;-73
2024/04/08 02:06:01;;;;;;;2.00;1.90;;;15.80;99.90;;;;;;5066365;28;20186;-74
2024/04/08 02:08:27;;;;;;;1.93;1.83;;;15.80;99.90;;;;;;5058599;28;20203;-73
2024/04/08 02:10:54;;;;;;;1.90;1.80;;;15.80;99.90;;;;;;5062243;28;20200;-73
2024/04/08 02:13:20;;;;;;;2.83;2.47;;;15.80;99.90;;;;;;5078959;28;20226;-72
2024/04/08 02:15:49;;;;;;;2.10;1.90;;;15.80;99.90;;;;;;5058144;28;20190;-73
2024/04/08 02:18:15;;;;;;;3.13;2.10;;;15.80;99.90;;;;;;5060540;28;20323;-73
2024/04/08 02:20:42;;;;;;;2.10;1.90;;;15.80;99.90;;;;;;5056694;28;20203;-72
2024/04/08 02:23:08;;;;;;;2.63;2.10;;;15.70;99.90;;;;;;5057313;28;20200;-72
2024/04/08 02:25:39;;;;;;;5.87;2.40;;;15.60;99.90;;;;;;5062821;28;20299;-73
2024/04/08 02:28:05;;;;;;;2.30;2.10;;;15.60;99.90;;;;;;5059830;28;20198;-71
2024/04/08 02:30:36;;;;;;;3.53;2.57;;;15.60;99.90;;;;;;5058725;28;20223;-72
2024/04/08 02:33:05;;;;;;;3.73;2.70;;;15.60;99.90;;;;;;5057662;28;20667;-71
2024/04/08 02:35:35;;;;;;;5.00;2.70;;;15.60;99.90;;;;;;5058607;28;20769;-72
2024/04/08 02:38:04;;;;;;;2.70;2.43;;;15.60;99.90;;;;;;5055340;28;20219;-71
2024/04/08 02:40:32;;;;;;;2.70;2.40;;;15.60;99.90;;;;;;5060632;28;20192;-72
2024/04/08 02:42:58;;;;;;;3.50;2.70;;;15.50;99.90;;;;;;5055511;28;20202;-72
2024/04/08 02:45:25;;;;;;;3.57;3.00;;;15.50;99.90;;;;;;5058883;28;20224;-72
2024/04/08 02:47:51;;;;;;;4.13;2.63;;;15.50;99.90;;;;;;5063064;28;20616;-72
2024/04/08 02:50:20;;;;;;;3.97;2.53;;;15.40;99.90;;;;;;5071977;28;20199;-73
2024/04/08 02:52:46;;;;;;;3.30;2.63;;;15.40;99.90;;;;;;5060664;28;20837;-72
2024/04/08 02:55:13;;;;;;;2.63;2.23;;;15.40;99.90;;;;;;5058838;28;20204;-72
2024/04/08 02:57:39;;;;;;;2.23;1.93;;;15.40;99.90;;;;;;5067417;28;20196;-71
2024/04/08 03:00:08;;;;;;;3.10;1.80;;;15.40;99.90;;;;;;5066381;28;20568;-72
2024/04/08 03:02:34;;;;;;;2.10;1.90;;;15.40;99.90;;;;;;5057272;28;20349;-71
2024/04/08 03:05:01;;;;;;;2.23;1.93;;;15.40;99.90;;;;;;5055583;28;20733;-71
2024/04/08 03:07:29;;;;;;;3.47;2.20;;;14.60;99.90;;;;;;5072878;28;20185;-71
2024/04/08 03:09:56;;;;;;;6.40;2.73;;;15.40;99.90;;;;;;5078062;28;20190;-71
2024/04/08 03:12:24;;;;;;;5.87;2.90;;;15.40;99.90;;;;;;5071064;28;20263;-71
2024/04/08 03:14:51;;;;;;;9.73;4.20;;;15.40;99.90;;;;;;5060636;28;20272;-71
2024/04/08 03:17:17;;;;;;;9.27;3.53;;;15.40;99.90;;;;;;5056569;28;20525;-71
2024/04/08 03:19:44;;;;;;;5.77;3.43;;;15.50;99.90;;;;;;5062154;28;20275;-72
2024/04/08 03:22:10;;;;;;;3.03;2.40;;;15.50;99.90;;;;;;5059172;28;20636;-71
2024/04/08 03:24:39;;;;;;;2.30;2.10;;;15.60;99.90;;;;;;5072649;28;20201;-71
2024/04/08 03:27:05;;;;;;;2.87;2.57;;;15.60;99.90;;;;;;5070999;28;20193;-70
2024/04/08 03:29:32;;;;;;;2.20;2.00;;;15.60;99.90;;;;;;5075319;28;20191;-71
2024/04/08 03:31:58;;;;;;;2.10;1.80;;;15.60;99.90;;;;;;5070794;28;20209;-71
2024/04/08 03:34:25;;;;;;;3.47;2.37;;;15.60;99.90;;;;;;5071903;28;20199;-72
2024/04/08 03:36:53;;;;;;;3.20;2.63;;;15.70;99.90;;;;;;5063960;28;20283;-72
2024/04/08 03:39:20;;;;;;;3.50;2.50;;;15.70;99.90;;;;;;5072361;28;20208;-72
2024/04/08 03:41:51;;;;;;;2.00;1.90;;;15.70;99.90;;;;;;5070548;28;20198;-73
2024/04/08 03:44:18;;;;;;;1.73;1.63;;;15.70;99.90;;;;;;5072073;28;20201;-72
2024/04/08 03:46:45;;;;;;;1.90;1.80;;;15.70;99.90;;;;;;5071142;28;20208;-74
2024/04/08 03:49:11;;;;;;;2.73;1.90;;;15.70;99.90;;;;;;5070928;28;20197;-73
2024/04/08 03:51:40;;;;;;;2.47;2.00;;;15.60;99.90;;;;;;5066415;28;20522;-73
2024/04/08 03:54:06;;;;;;;2.47;1.90;;;15.60;99.90;;;;;;5068847;28;20264;-73
2024/04/08 03:56:33;;;;;;;1.70;1.60;;;15.60;99.90;;;;;;5070848;28;20200;-73
2024/04/08 03:59:00;;;;;;;2.80;2.00;;;15.70;99.90;;;;;;5071236;28;20201;-72
2024/04/08 04:01:29;;;;;;;2.10;1.90;;;15.70;99.90;;;;;;5067236;28;20197;-72
2024/04/08 04:03:55;;;;;;;2.33;2.00;;;15.70;99.90;;;;;;5070191;28;20227;-72
2024/04/08 04:06:22;;;;;;;2.60;2.03;;;15.70;99.90;;;;;;5080574;28;20498;-73
2024/04/08 04:08:48;;;;;;;2.57;2.03;;;15.60;99.90;;;;;;5070369;28;20194;-73
2024/04/08 04:11:15;;;;;;;3.97;2.00;;;15.60;99.90;;;;;;5070494;28;20611;-72
2024/04/08 04:13:41;;;;;;;2.10;1.83;;;15.60;99.90;;;;;;5070764;28;20279;-72
2024/04/08 04:16:10;;;;;;;3.47;2.10;;;15.60;99.90;;;;;;5077877;28;20648;-73
2024/04/08 04:18:37;;;;;;;1.87;1.70;;;15.60;99.90;;;;;;5070626;28;20658;-72
2024/04/08 04:21:04;;;;;;;1.77;1.60;;;15.60;99.90;;;;;;5071101;28;20189;-72
2024/04/08 04:23:30;;;;;;;3.17;1.90;;;15.60;99.90;;;;;;5067153;28;20553;-72
2024/04/08 04:26:00;;;;;;;2.70;1.67;;;15.60;99.90;;;;;;5068043;28;20516;-72
2024/04/08 04:28:26;;;;;;;3.60;1.80;;;15.60;99.90;;;;;;5070945;28;20201;-72
2024/04/08 04:30:54;;;;;;;4.63;1.80;;;15.60;99.90;;;;;;5067293;28;20613;-72
2024/04/08 04:33:22;;;;;;;1.40;1.30;;;15.70;99.90;;;;;;5070320;28;20214;-71
2024/04/08 04:35:53;;;;;;;1.40;1.30;;;15.70;99.90;;;;;;5073504;28;20549;-71
2024/04/08 04:38:19;;;;;;;1.40;1.27;;;15.80;99.90;;;;;;5070570;28;20197;-71
2024/04/08 04:40:46;;;;;;;1.57;1.40;;;15.80;99.90;;;;;;5077814;28;20209;-71
2024/04/08 04:43:13;;;;;;;1.73;1.10;;;15.80;99.90;;;;;;5072370;28;20194;-71
2024/04/08 04:45:40;;;;;;;1.33;1.17;;;15.70;99.90;;;;;;5077269;28;20201;-72
2024/04/08 04:48:07;;;;;;;1.30;1.20;;;15.70;99.90;;;;;;5071773;28;20196;-72
2024/04/08 04:50:35;;;;;;;1.90;1.23;;;15.70;99.90;;;;;;5074933;28;20178;-72
2024/04/08 04:53:01;;;;;;;1.23;0.90;;;15.60;99.90;;;;;;5070437;28;20557;-72
2024/04/08 04:55:28;;;;;;;1.93;1.10;;;15.70;99.90;;;;;;5073593;28;20192;-72
2024/04/08 04:57:55;;;;;;;2.53;1.00;;;15.70;99.90;;;;;;5070754;28;20205;-71
2024/04/08 05:00:25;;;;;;;1.00;1.00;;;15.80;99.90;;;;;;5070182;28;20690;-72
2024/04/08 05:02:51;;;;;;;1.30;1.20;;;15.80;99.90;;;;;;5069721;28;20230;-73
2024/04/08 05:05:19;;;;;;;1.37;1.27;;;15.80;99.90;;;;;;5072814;28;20264;-72
2024/04/08 05:07:46;;;;;;;1.80;1.20;;;15.80;99.90;;;;;;5073383;28;20217;-72
2024/04/08 05:10:13;;;;;;;2.30;1.57;;;15.80;99.90;;;;;;5073546;28;20217;-72
2024/04/08 05:12:40;;;;;;;1.50;1.30;;;15.90;99.90;;;;;;5073927;28;20247;-71
2024/04/08 05:15:08;;;;;;;2.90;1.63;;;15.90;99.90;;;;;;5073631;28;20203;-72
2024/04/08 05:17:34;;;;;;;1.47;1.30;;;15.90;99.90;;;;;;5073632;28;20209;-72
2024/04/08 05:20:03;;;;;;;1.80;1.30;;;15.90;99.90;;;;;;5072757;28;20189;-71
2024/04/08 05:22:30;;;;;;;2.30;1.30;;;15.90;99.90;;;;;;5078045;28;20530;-72
2024/04/08 05:24:59;;;;;;;1.70;1.40;;;16.00;99.90;;;;;;5073787;28;20191;-73
2024/04/08 05:27:25;;;;;;;1.33;1.23;;;16.00;99.90;;;;;;5065868;28;20206;-71
2024/04/08 05:29:52;;;;;;;1.20;1.10;;;16.00;99.90;;;;;;5071494;28;20186;-72
2024/04/08 05:32:18;;;;;;;1.50;1.33;;;16.00;99.90;;;;;;5076028;28;20241;-72
2024/04/08 05:34:45;;;;;;;3.33;1.40;;;16.00;99.90;;;;;;5070332;28;20565;-71
2024/04/08 05:37:11;;;;;;;1.53;1.20;;;16.00;99.90;;;;;;5074819;28;20206;-72
2024/04/08 05:39:39;;;;;;;1.87;1.67;;;16.00;99.90;;;;;;5072606;28;20185;-72
2024/04/08 05:42:07;;;;;;;1.70;1.37;;;16.10;99.90;;;;;;5073524;28;20201;-72
2024/04/08 05:44:34;;;;;;;2.60;1.77;;;16.10;99.90;;;;;;5073525;28;20191;-72
2024/04/08 05:47:00;;;;;;;2.60;2.40;;;16.10;99.90;;;;;;5072937;28;20200;-72
2024/04/08 05:49:27;;;;;;;3.47;2.63;;;16.10;99.90;;;;;;5072770;28;20652;-72
2024/04/08 05:51:53;;;;;;;5.07;2.13;;;16.10;99.90;;;;;;5082208;28;20195;-73
2024/04/08 05:54:20;;;;;;;5.67;2.20;;;16.20;99.90;;;;;;5073300;28;20206;-71
2024/04/08 05:56:46;;;;;;;4.00;2.17;;;16.20;99.90;;;;;;5080300;28;20208;-72
2024/04/08 05:59:15;;;;;;;2.47;1.40;;;16.20;99.90;;;;;;5073555;28;20224;-72
2024/04/08 06:01:41;;;;;;;2.93;1.60;;;16.30;99.90;;;;;;5055528;28;20182;-72
2024/04/08 06:04:08;;;;;;;2.17;1.63;;;16.30;99.90;;;;;;5068045;28;20239;-71
2024/04/08 06:06:34;;;;;;;1.27;1.20;;;16.30;99.90;;;;;;5069908;28;20267;-71
2024/04/08 06:09:04;;;;;;;2.40;1.77;;;16.40;99.90;;;;;;5070213;28;20214;-71
2024/04/08 06:11:31;;;;;;;2.33;1.50;;;16.40;99.90;;;;;;5072629;28;20290;-71
2024/04/08 06:13:58;;;;;;;2.47;1.60;;;16.30;99.90;;;;;;5070815;28;20211;-71
2024/04/08 06:16:25;;;;;;;1.20;1.10;;;16.30;99.90;;;;;;5070297;28;20319;-71
2024/04/08 06:18:53;;;;;;;3.40;1.30;;;16.30;99.90;;;;;;5072050;28;20200;-72
2024/04/08 06:21:19;;;;;;;4.10;2.03;;;16.30;99.90;;;;;;5085617;28;20199;-72
2024/04/08 06:23:47;;;;;;;2.50;1.80;;;16.30;99.90;;;;;;5098057;28;20218;-71
2024/04/08 06:26:14;;;;;;;2.97;1.50;;;16.30;99.90;;;;;;5074426;28;20259;-72
2024/04/08 06:28:41;;;;;;;3.63;2.00;;;16.40;99.90;;;;;;5077294;28;20186;-72
2024/04/08 06:31:07;;;;;;;3.57;1.90;;;16.30;99.90;;;;;;5069714;28;20525;-73
2024/04/08 06:33:36;;;;;;;2.67;2.00;;;16.30;99.90;;;;;;5070596;28;20201;-71
2024/04/08 06:36:02;;;;;;;1.70;1.60;;;16.30;99.90;;;;;;5059674;28;20199;-71
2024/04/08 06:38:29;;;;;;;1.97;1.40;;;16.20;99.90;;;;;;5074323;28;20192;-71
2024/04/08 06:40:56;;;;;;;1.63;1.50;;;16.20;99.90;;;;;;5068755;28;20199;-71
2024/04/08 06:43:23;;;;;;;1.60;1.33;;;16.10;99.90;;;;;;5065736;28;20226;-71
2024/04/08 06:45:55;;;;;;;6.70;1.83;;;16.20;99.90;;;;;;5069740;28;20583;-71
2024/04/08 06:48:22;;;;;;;2.53;1.40;;;16.20;99.90;;;;;;5069975;28;20186;-72
2024/04/08 06:50:50;;;;;;;1.97;1.30;;;16.30;99.90;;;;;;5067838;28;20217;-72
2024/04/08 06:53:18;;;;;;;1.43;1.30;;;16.30;99.90;;;;;;5071235;28;20228;-72
2024/04/08 06:55:44;;;;;;;3.17;1.30;;;16.30;99.90;;;;;;5066446;28;20243;-72
2024/04/08 06:58:14;;;;;;;1.97;1.33;;;16.30;99.90;;;;;;5069158;28;20595;-72
2024/04/08 07:00:40;;;;;;;1.67;1.37;;;16.40;99.90;;;;;;5069275;28;20297;-72
2024/04/08 07:03:08;;;;;;;1.40;1.33;;;16.40;99.90;;;;;;5073822;28;20629;-72
2024/04/08 07:05:35;;;;;;;1.37;1.27;;;16.30;99.90;;;;;;5068883;28;20210;-72
2024/04/08 07:08:04;;;;;;;1.33;1.27;;;16.30;99.90;;;;;;5069506;28;20214;-72
2024/04/08 07:10:30;;;;;;;1.90;1.63;;;16.30;99.90;;;;;;5056729;28;20202;-72
2024/04/08 07:12:57;;;;;;;3.70;2.00;;;16.30;99.90;;;;;;5067406;28;20203;-72
2024/04/08 07:15:23;;;;;;;4.43;1.60;;;16.40;99.90;;;;;;5069213;28;20268;-72
2024/04/08 07:17:51;;;;;;;1.50;1.37;;;16.40;99.90;;;;;;5072465;28;20195;-72
2024/04/08 07:20:17;;;;;;;3.03;1.53;;;16.50;99.90;;;;;;5056981;28;20546;-73
2024/04/08 07:22:44;;;;;;;2.30;1.60;;;16.40;99.90;;;;;;5071481;28;20201;-72
2024/04/08 07:25:11;;;;;;;1.57;1.47;;;16.50;99.90;;;;;;5075570;28;20196;-73
2024/04/08 07:27:39;;;;;;;4.83;1.30;;;16.50;99.90;;;;;;5068275;28;20658;-72
2024/04/08 07:30:06;;;;;;;2.23;1.20;;;16.60;99.90;;;;;;5069160;28;20191;-72
2024/04/08 07:32:33;;;;;;;1.40;1.30;;;16.60;99.90;;;;;;5068973;28;20224;-71
2024/04/08 07:35:00;;;;;;;1.20;1.10;;;16.60;99.90;;;;;;5074270;28;20287;-72
2024/04/08 07:37:27;;;;;;;1.20;1.10;;;16.60;99.90;;;;;;5064434;28;20276;-73
2024/04/08 07:39:53;;;;;;;2.55;1.52;;;16.80;99.90;;;;;;5071722;28;20201;-72
2024/04/08 07:42:22;;;;;;;1.63;1.30;;;16.70;99.90;;;;;;5070689;28;20249;-72
2024/04/08 07:44:48;;;;;;;1.60;1.50;;;16.80;99.80;;;;;;5072437;28;20744;-72
2024/04/08 07:47:15;;;;;;;1.93;1.40;;;16.80;99.60;;;;;;5067641;28;20298;-72
2024/04/08 07:49:42;;;;;;;4.40;1.40;;;16.80;99.50;;;;;;5069516;28;20671;-72
2024/04/08 07:52:10;;;;;;;1.53;1.43;;;16.90;99.40;;;;;;5062410;28;20187;-71
2024/04/08 07:54:36;;;;;;;1.50;1.40;;;16.90;99.20;;;;;;5067407;28;20301;-72
2024/04/08 07:57:04;;;;;;;3.60;1.50;;;16.90;99.40;;;;;;5067887;28;20412;-73
2024/04/08 07:59:32;;;;;;;3.70;1.90;;;16.90;98.70;;;;;;5069877;28;20944;-74
2024/04/08 08:01:59;;;;;;;3.97;1.40;;;16.90;98.20;;;;;;5067092;28;20265;-73
2024/04/08 08:04:28;;;;;;;2.20;1.42;;;16.90;98.10;;;;;;5067356;28;20695;-74
2024/04/08 08:06:55;;;;;;;1.57;1.30;;;17.00;98.10;;;;;;5068172;28;20207;-73
2024/04/08 08:09:23;;;;;;;3.85;1.20;;;17.00;98.10;;;;;;5068663;28;20200;-73
2024/04/08 08:11:50;;;;;;;1.23;0.90;;;17.10;98.10;;;;;;5067522;28;20222;-73
2024/04/08 08:14:17;;;;;;;1.40;1.30;;;17.10;97.90;;;;;;5067432;28;20213;-73
2024/04/08 08:16:46;;;;;;;1.40;1.30;;;17.10;97.80;;;;;;5071803;28;20203;-73
2024/04/08 08:19:13;;;;;;;1.20;1.00;;;17.20;97.40;;;;;;5068110;28;20274;-73
2024/04/08 08:21:41;;;;;;;1.30;1.20;;;17.30;97.40;;;;;;5062423;28;20195;-73
2024/04/08 08:24:08;;;;;;;1.13;1.03;;;17.30;97.30;;;;;;5068086;28;20195;-73
2024/04/08 08:26:35;;;;;;;5.63;1.35;;;17.30;97.10;;;;;;5066634;28;20196;-73
2024/04/08 08:29:01;;;;;;;1.60;1.30;;;17.30;96.80;;;;;;5072270;28;20684;-74
2024/04/08 08:31:29;;;;;;;1.23;1.20;;;17.40;96.70;;;;;;5067402;28;20224;-73
2024/04/08 08:33:56;;;;;;;1.27;1.17;;;17.40;96.10;;;;;;5067436;28;20213;-73
2024/04/08 08:36:24;;;;;;;2.30;1.50;;;17.30;96.10;;;;;;5067092;28;20207;-73
2024/04/08 08:38:50;;;;;;;3.90;1.97;;;17.30;96.20;;;;;;5069647;28;20192;-73
2024/04/08 08:41:19;;;;;;;4.13;2.05;;;17.30;96.20;;;;;;5071949;28;20224;-73
2024/04/08 08:43:46;;;;;;;2.67;1.80;;;17.30;96.60;;;;;;5069736;28;20543;-73
2024/04/08 08:46:15;;;;;;;3.70;1.80;;;17.30;96.30;;;;;;5072078;28;20228;-73
2024/04/08 08:48:43;;;;;;;2.03;1.70;;;17.30;96.30;;;;;;5071506;28;20201;-73
2024/04/08 08:51:12;;;;;;;2.38;1.80;;;17.30;96.30;;;;;;5069543;28;20275;-72
2024/04/08 08:53:38;;;;;;;3.33;1.88;;;17.30;96.40;;;;;;5072234;28;20208;-72
2024/04/08 08:56:08;;;;;;;2.63;1.58;;;17.30;96.50;;;;;;5070343;28;20203;-73
2024/04/08 08:58:35;;;;;;;2.90;2.05;;;17.30;96.60;;;;;;5064017;28;20603;-72
2024/04/08 09:01:02;;;;;;;2.15;1.65;;;17.30;96.70;;;;;;5073436;28;20196;-74
2024/04/08 09:03:33;;;;;;;5.10;1.67;;;17.30;96.90;;;;;;5071322;28;20687;-74
2024/04/08 09:06:00;;;;;;;4.30;1.55;;;17.30;96.90;;;;;;5064563;28;20663;-73
2024/04/08 09:08:28;;;;;;;4.13;1.50;;;17.30;96.80;;;;;;5071493;28;20202;-73
2024/04/08 09:10:56;;;;;;;1.93;1.70;;;17.40;97.00;;;;;;5068633;28;20282;-73
2024/04/08 09:13:24;;;;;;;5.22;2.05;;;17.40;97.00;;;;;;5076345;28;20316;-73
2024/04/08 09:15:52;;;;;;;2.85;1.55;;;17.40;97.10;;;;;;5072182;28;20239;-73
2024/04/08 09:18:20;;;;;;;1.30;1.20;;;17.50;97.20;;;;;;5071734;28;20259;-73
2024/04/08 09:20:47;;;;;;;2.03;1.70;;;17.60;97.30;;;;;;5068866;28;20192;-73
2024/04/08 09:23:13;;;;;;;2.38;1.80;;;17.70;97.50;;;;;;5070254;28;20205;-73
2024/04/08 09:25:42;;;;;;;2.73;1.87;;;17.90;97.60;;;;;;5072282;28;20276;-74
2024/04/08 09:28:11;;;;;;;2.08;1.35;;;18.00;97.50;;;;;;5071010;28;20251;-73
2024/04/08 09:30:39;;;;;;;1.98;1.60;;;18.10;97.40;;;;;;5075977;28;20192;-73
2024/04/08 09:33:08;;;;;;;3.00;1.50;;;18.20;97.20;;;;;;5067302;28;20213;-73
2024/04/08 09:35:40;;;;;;;2.13;1.50;;;18.20;96.90;;;;;;5078288;28;20192;-73
2024/04/08 09:38:08;;;;;;;7.85;1.50;;;18.30;96.80;;;;;;5071987;28;20644;-73
2024/04/08 09:40:36;;;;;;;1.30;1.13;;;18.30;96.80;;;;;;5070660;28;20177;-72
2024/04/08 09:43:05;;;;;;;2.08;1.30;;;18.30;96.90;;;;;;5068968;28;20208;-74
2024/04/08 09:45:35;;;;;;;3.30;1.63;;;18.30;97.00;;;;;;5072958;28;20203;-73
2024/04/08 09:48:01;;;;;;;3.85;1.60;;;18.30;97.20;;;;;;5070593;28;20200;-73
2024/04/08 09:50:29;;;;;;;3.67;1.75;;;18.30;97.30;;;;;;5071821;28;20529;-73
2024/04/08 09:52:55;;;;;;;3.83;1.50;;;18.30;97.50;;;;;;5062036;28;20268;-74
2024/04/08 09:55:29;;;;;;;2.38;1.60;;;18.30;97.60;;;;;;5073212;28;20699;-73
2024/04/08 09:57:58;;;;;;;1.05;1.05;;;18.40;97.60;;;;;;5079113;28;20218;-74
2024/04/08 10:00:31;;;;;;;4.85;1.60;;;18.40;97.70;;;;;;5080580;28;20274;-74
2024/04/08 10:03:03;;;;;;;1.40;1.30;;;18.50;97.90;;;;;;5068756;28;20731;-73
2024/04/08 10:05:31;;;;;;;2.17;1.45;;;18.50;97.90;;;;;;5069500;28;20668;-73
2024/04/08 10:07:58;;;;;;;2.97;1.70;;;18.50;98.00;;;;;;5072506;28;20197;-74
2024/04/08 10:10:26;;;;;;;1.50;1.40;;;18.60;98.30;;;;;;5066248;28;20276;-73
2024/04/08 10:12:52;;;;;;;3.13;1.58;;;18.50;98.30;;;;;;5068079;28;20225;-73
2024/04/08 10:15:22;;;;;;;1.33;1.23;;;18.60;98.50;;;;;;5067090;28;20279;-73
2024/04/08 10:17:51;;;;;;;1.30;1.20;;;18.60;98.70;;;;;;5069604;28;20194;-73
2024/04/08 10:20:20;;;;;;;2.95;1.65;;;18.60;98.80;;;;;;5068041;28;20203;-73
2024/04/08 10:22:47;;;;;;;1.73;1.60;;;18.60;98.90;;;;;;5069350;28;20679;-73
2024/04/08 10:25:36;;;;;;;1.60;1.50;;;18.60;99.10;;;;;;5065695;28;20182;-73
2024/04/08 10:28:07;;;;;;;4.82;1.90;;;18.60;99.20;;;;;;5073751;28;20202;-73
2024/04/08 10:30:34;;;;;;;3.33;1.70;;;18.60;99.40;;;;;;5071233;28;20190;-73
2024/04/08 10:33:02;;;;;;;4.60;1.90;;;18.50;99.50;;;;;;5071552;28;20198;-74
2024/04/08 10:35:30;;;;;;;3.00;1.70;;;18.50;99.60;;;;;;5073172;28;20583;-74
2024/04/08 10:37:56;;;;;;;1.83;1.60;;;18.50;99.80;;;;;;5069224;28;20197;-74
2024/04/08 10:40:23;;;;;;;3.22;1.75;;;18.50;99.90;;;;;;5068369;28;20232;-73
2024/04/08 10:42:50;;;;;;;6.72;1.52;;;18.50;99.90;;;;;;5070955;28;20193;-74
2024/04/08 10:45:19;;;;;;;2.88;1.70;;;18.50;99.90;;;;;;5069794;28;20481;-73
2024/04/08 10:47:46;;;;;;;2.35;1.88;;;18.50;99.90;;;;;;5071012;28;20190;-73
2024/04/08 10:50:14;;;;;;;2.17;1.63;;;18.50;99.90;;;;;;5068008;28;20193;-72
2024/04/08 10:52:41;;;;;;;2.15;1.75;;;18.60;99.90;;;;;;5068908;28;20205;-74
2024/04/08 10:55:09;;;;;;;3.30;1.55;;;18.60;99.90;;;;;;5069080;28;20237;-73
2024/04/08 10:57:35;;;;;;;4.05;1.50;;;18.70;99.90;;;;;;5070619;28;20189;-73
2024/04/08 11:12:18;;;;;;;2.75;1.70;;;18.70;99.90;;;;;;6555005;20;1247869;-74
2024/04/08 11:14:45;;;;;;;2.90;2.00;;;18.90;99.90;;;;;;6579493;21;20251;-74
2024/04/08 11:17:19;;;;;;;3.17;1.70;;;19.00;99.90;;;;;;6578926;21;20693;-74
2024/04/08 11:19:55;;;;;;;2.17;1.70;;;19.00;99.90;;;;;;6577844;21;20228;-74
2024/04/08 11:22:23;;;;;;;2.13;1.77;;;19.10;99.90;;;;;;6580056;21;20509;-73
2024/04/08 11:24:50;;;;;;;2.15;1.85;;;19.10;99.90;;;;;;6579621;21;20216;-73
2024/04/08 11:27:22;;;;;;;2.35;1.63;;;19.10;99.90;;;;;;6578270;21;20232;-74
2024/04/08 11:29:49;;;;;;;1.65;1.40;;;19.00;99.90;;;;;;6581634;21;20263;-73
2024/04/08 11:32:18;;;;;;;2.17;1.48;;;19.00;99.90;;;;;;6578339;21;20566;-73
2024/04/08 11:34:44;;;;;;;5.32;2.58;;;19.10;99.90;;;;;;6579546;21;20282;-73
2024/04/08 11:37:13;;;;;;;2.45;2.25;;;19.10;99.90;;;;;;6578829;21;20232;-73
2024/04/08 11:39:40;;;;;;;4.07;2.28;;;19.10;99.90;;;;;;6578933;21;20349;-77
2024/04/08 11:42:09;;;;;;;2.58;1.90;;;19.10;99.90;;;;;;6577602;21;20292;-75
2024/04/08 11:44:40;;;;;;;2.63;1.85;;;19.00;99.90;;;;;;6580555;21;20225;-73
2024/04/08 11:47:13;;;;;;;2.05;1.85;;;19.00;99.90;;;;;;6580999;21;20225;-74
2024/04/08 11:49:40;;;;;;;3.65;2.50;;;19.00;99.90;;;;;;6581328;21;20267;-74
2024/04/08 11:52:08;;;;;;;3.80;2.58;;;19.00;99.90;;;;;;6581615;21;20285;-74
2024/04/08 11:54:35;;;;;;;3.78;2.20;;;19.00;99.90;;;;;;6578722;21;20275;-74
2024/04/08 11:57:03;;;;;;;1.90;1.70;;;19.00;99.90;;;;;;6578927;21;20277;-74
2024/04/08 11:59:30;;;;;;;1.70;1.48;;;18.90;99.90;;;;;;6581894;21;20322;-74
2024/04/08 12:02:03;;;;;;;1.40;1.27;;;18.90;99.90;;;;;;6578808;21;20623;-76
2024/04/08 12:04:29;;;;;;;3.38;1.83;;;19.00;99.90;;;;;;6580899;21;20486;-73
2024/04/08 12:06:58;;;;;;;7.18;2.22;;;19.00;99.90;;;;;;6577771;21;20267;-74
2024/04/08 12:09:25;;;;;;;2.28;1.80;;;19.10;99.90;;;;;;6581714;21;20217;-75
2024/04/08 12:11:54;;;;;;;2.05;1.67;;;19.10;99.90;;;;;;6576536;21;20275;-75
2024/04/08 12:14:20;;;;;;;2.88;1.52;;;19.10;99.90;;;;;;6571191;21;20225;-74
2024/04/08 12:16:49;;;;;;;2.25;1.80;;;19.10;99.90;;;;;;6573033;21;20636;-75
2024/04/08 12:19:18;;;;;;;2.60;2.20;;;19.10;99.90;;;;;;6570621;21;20229;-75
2024/04/08 12:21:46;;;;;;;2.30;1.77;;;19.10;99.90;;;;;;6570721;21;20260;-75
2024/04/08 12:24:12;;;;;;;3.45;2.35;;;19.20;99.90;;;;;;6573252;21;20245;-75
2024/04/08 12:26:41;;;;;;;2.20;2.00;;;19.30;99.90;;;;;;6574013;21;20276;-75
2024/04/08 12:29:08;;;;;;;2.13;1.92;;;19.40;99.90;;;;;;6574324;21;20217;-75
2024/04/08 12:31:36;;;;;;;2.58;1.98;;;19.60;99.90;;;;;;6568577;21;20251;-75
2024/04/08 12:34:03;;;;;;;5.45;2.47;;;19.70;99.90;;;;;;6571183;21;20217;-75
2024/04/08 12:36:34;;;;;;;3.85;2.55;;;19.90;99.90;;;;;;6569043;21;20229;-76
2024/04/08 12:39:00;;;;;;;7.72;2.47;;;20.00;99.90;;;;;;6573891;21;20311;-76
2024/04/08 12:41:29;;;;;;;2.22;2.03;;;20.10;99.90;;;;;;6572581;21;20225;-76
2024/04/08 12:43:56;;;;;;;1.70;1.60;;;20.20;99.90;;;;;;6573275;21;20232;-75
2024/04/08 12:46:25;;;;;;;2.22;2.13;;;20.20;99.90;;;;;;6570091;21;20236;-75
2024/04/08 12:48:51;;;;;;;2.65;2.22;;;20.30;99.90;;;;;;6574430;21;20217;-75
2024/04/08 12:51:20;;;;;;;4.82;2.47;;;20.40;99.90;;;;;;6572702;21;20272;-75
2024/04/08 12:53:48;;;;;;;3.28;2.30;;;20.50;99.90;;;;;;6571666;21;20734;-74
2024/04/08 12:56:17;;;;;;;4.18;2.78;;;20.60;99.90;;;;;;6572882;21;20565;-75
2024/04/08 12:58:43;;;;;;;2.80;1.95;;;20.70;99.90;;;;;;6574262;21;20259;-73
2024/04/08 13:01:12;;;;;;;5.40;2.45;;;20.70;99.90;;;;;;6571295;21;20222;-74